Time;durP1;ratioP1;P1;durP2;ratioP2;P2;SDS_P1;SDS_P2;PMS_P1;PMS_P2;Temp;Humidity;BMP_temperature;BMP_pressure;BME280_temperature;BME280_humidity;BME280_pressure;Samples;Min_cycle;Max_cycle;Signal;HPM_P1;HPM_P2
2022/10/17 00:00:39;;;;;;;;;;;;;;;;;;5093462;28;1976;-49
2022/10/17 00:03:06;;;;;;;;;;;;;;;;;;5093347;28;1189;-48
2022/10/17 00:05:33;;;;;;;;;;;;;;;;;;5093543;28;2179;-47
2022/10/17 00:08:00;;;;;;;;;;;;;;;;;;5093746;28;1704;-47
2022/10/17 00:10:28;;;;;;;;;;;;;;;;;;5093256;28;1899;-48
2022/10/17 00:12:55;;;;;;;;;;;;;;;;;;5091962;28;2550;-48
2022/10/17 00:15:22;;;;;;;;;;;;;;;;;;5093354;28;2102;-47
2022/10/17 00:17:49;;;;;;;;;;;;;;;;;;5093003;28;1668;-47
2022/10/17 00:20:16;;;;;;;;;;;;;;;;;;5092965;28;1961;-47
2022/10/17 00:22:43;;;;;;;;;;;;;;;;;;5093087;28;1978;-48
2022/10/17 00:25:10;;;;;;;;;;;;;;;;;;5093184;28;1939;-48
2022/10/17 00:27:38;;;;;;;;;;;;;;;;;;5093035;28;2029;-47
2022/10/17 00:30:06;;;;;;;;;;;;;;;;;;5092917;28;1829;-47
2022/10/17 00:32:34;;;;;;;;;;;;;;;;;;5091554;28;2202;-48
2022/10/17 00:35:01;;;;;;;;;;;;;;;;;;5092854;28;2150;-48
2022/10/17 00:37:32;;;;;;;;;;;;;;;;;;5091600;28;2215;-48
2022/10/17 00:39:59;;;;;;;;;;;;;;;;;;5092910;28;1393;-49
2022/10/17 00:42:26;;;;;;;;;;;;;;;;;;5092937;28;1975;-49
2022/10/17 00:44:58;;;;;;;;;;;;;;;;;;5092719;28;1811;-47
2022/10/17 00:47:25;;;;;;;;;;;;;;;;;;5092296;28;2133;-48
2022/10/17 00:49:52;;;;;;;;;;;;;;;;;;5092777;28;2124;-48
2022/10/17 00:52:21;;;;;;;;;;;;;;;;;;5092330;28;1716;-48
2022/10/17 00:54:50;;;;;;;;;;;;;;;;;;5091035;28;1784;-47
2022/10/17 00:57:17;;;;;;;;;;;;;;;;;;5092550;28;1688;-50
2022/10/17 00:59:49;;;;;;;;;;;;;;;;;;5090828;28;1821;-45
2022/10/17 01:02:18;;;;;;;;;;;;;;;;;;5090806;28;2010;-44
2022/10/17 01:04:47;;;;;;;;;;;;;;;;;;5107808;28;1897;-47
2022/10/17 01:07:14;;;;;;;;;;;;;;;;;;5090891;28;2139;-49
2022/10/17 01:09:42;;;;;;;;;;;;;;;;;;5090646;28;2114;-47
2022/10/17 01:12:13;;;;;;;;;;;;;;;;;;5090518;28;1902;-41
2022/10/17 01:14:45;;;;;;;;;;;;;;;;;;5092443;28;1666;-48
2022/10/17 01:17:25;;;;;;;;;;;;;;;;;;5092265;28;2033;-48
2022/10/17 01:20:15;;;;;;;;;;;;;;;;;;5090610;28;2152;-47
2022/10/17 01:22:48;;;;;;;;;;;;;;;;;;5097053;28;1965;-48
2022/10/17 01:25:33;;;;;;;;;;;;;;;;;;5111960;28;1632;-47
2022/10/17 01:28:07;;;;;;;;;;;;;;;;;;5110899;28;1731;-48
2022/10/17 01:30:48;;;;;;;;;;;;;;;;;;5110725;28;1992;-45
2022/10/17 01:33:31;;;;;;;;;;;;;;;;;;5105623;28;1423;-47
2022/10/17 01:35:58;;;;;;;;;;;;;;;;;;5090339;28;1817;-47
2022/10/17 01:38:44;;;;;;;;;;;;;;;;;;5090507;28;1677;-47
2022/10/17 01:41:17;;;;;;;;;;;;;;;;;;5090144;28;2405;-48
2022/10/17 01:44:03;;;;;;;;;;;;;;;;;;5089974;28;1906;-51
2022/10/17 01:46:38;;;;;;;;;;;;;;;;;;5090397;28;1960;-47
2022/10/17 01:49:07;;;;;;;;;;;;;;;;;;5091583;28;2248;-49
2022/10/17 01:51:50;;;;;;;;;;;;;;;;;;5090099;28;2233;-48
2022/10/17 01:54:20;;;;;;;;;;;;;;;;;;5089702;28;1947;-49
2022/10/17 01:56:50;;;;;;;;;;;;;;;;;;5091327;28;1855;-50
2022/10/17 01:59:22;;;;;;;;;;;;;;;;;;5090012;28;2025;-47
2022/10/17 02:01:51;;;;;;;;;;;;;;;;;;5089449;28;2096;-48
2022/10/17 02:04:19;;;;;;;;;;;;;;;;;;5090924;28;1901;-44
2022/10/17 02:06:46;;;;;;;;;;;;;;;;;;5091426;28;2158;-49
2022/10/17 02:09:23;;;;;;;;;;;;;;;;;;5089232;28;1701;-44
2022/10/17 02:11:56;;;;;;;;;;;;;;;;;;5089998;28;2142;-46
2022/10/17 02:14:51;;;;;;;;;;;;;;;;;;5089822;28;1614;-48
2022/10/17 02:17:22;;;;;;;;;;;;;;;;;;5091094;28;1752;-51
2022/10/17 02:19:54;;;;;;;;;;;;;;;;;;5089760;28;1963;-45
2022/10/17 02:22:40;;;;;;;;;;;;;;;;;;5089807;28;1926;-49
2022/10/17 02:25:20;;;;;;;;;;;;;;;;;;5091149;28;1815;-47
2022/10/17 02:27:55;;;;;;;;;;;;;;;;;;5089881;28;1876;-51
2022/10/17 02:30:32;;;;;;;;;;;;;;;;;;5089695;28;2488;-50
2022/10/17 02:33:02;;;;;;;;;;;;;;;;;;5094014;28;2092;-49
2022/10/17 02:35:31;;;;;;;;;;;;;;;;;;5111287;28;1743;-47
2022/10/17 02:37:59;;;;;;;;;;;;;;;;;;5110273;28;2004;-50
2022/10/17 02:40:28;;;;;;;;;;;;;;;;;;5109966;28;2125;-50
2022/10/17 02:42:57;;;;;;;;;;;;;;;;;;5109990;28;2199;-46
2022/10/17 02:45:25;;;;;;;;;;;;;;;;;;5111807;28;1930;-47
2022/10/17 02:48:08;;;;;;;;;;;;;;;;;;5111359;28;1603;-47
2022/10/17 02:50:43;;;;;;;;;;;;;;;;;;5111099;28;2111;-48
2022/10/17 02:53:15;;;;;;;;;;;;;;;;;;5109832;28;1572;-49
2022/10/17 02:55:49;;;;;;;;;;;;;;;;;;5112242;28;1955;-49
2022/10/17 02:58:19;;;;;;;;;;;;;;;;;;5110133;28;1997;-49
2022/10/17 03:00:49;;;;;;;;;;;;;;;;;;5093051;28;2125;-44
2022/10/17 03:03:18;;;;;;;;;;;;;;;;;;5093257;28;2241;-48
2022/10/17 03:05:45;;;;;;;;;;;;;;;;;;5094611;28;1861;-46
2022/10/17 03:08:12;;;;;;;;;;;;;;;;;;5094827;28;2038;-48
2022/10/17 03:10:39;;;;;;;;;;;;;;;;;;5092856;28;2196;-45
2022/10/17 03:13:07;;;;;;;;;;;;;;;;;;5094358;28;1942;-48
2022/10/17 03:15:37;;;;;;;;;;;;;;;;;;5092920;28;1555;-49
2022/10/17 03:18:05;;;;;;;;;;;;;;;;;;5093004;28;2205;-47
2022/10/17 03:20:32;;;;;;;;;;;;;;;;;;5093104;28;1908;-49
2022/10/17 03:23:00;;;;;;;;;;;;;;;;;;5092929;28;1968;-48
2022/10/17 03:25:28;;;;;;;;;;;;;;;;;;5093611;28;2057;-46
2022/10/17 03:27:57;;;;;;;;;;;;;;;;;;5092717;28;1645;-47
2022/10/17 03:30:25;;;;;;;;;;;;;;;;;;5109640;28;1986;-47
2022/10/17 03:32:52;;;;;;;;;;;;;;;;;;5095874;28;2317;-46
2022/10/17 03:35:19;;;;;;;;;;;;;;;;;;5113070;28;1780;-47
2022/10/17 03:37:49;;;;;;;;;;;;;;;;;;5114056;28;2108;-44
2022/10/17 03:40:19;;;;;;;;;;;;;;;;;;5112624;28;1869;-42
2022/10/17 03:42:46;;;;;;;;;;;;;;;;;;5114420;28;1977;-49
2022/10/17 03:45:13;;;;;;;;;;;;;;;;;;5114205;28;1804;-48
2022/10/17 03:47:41;;;;;;;;;;;;;;;;;;5112852;28;2182;-47
2022/10/17 03:50:08;;;;;;;;;;;;;;;;;;5114002;28;2107;-47
2022/10/17 03:52:37;;;;;;;;;;;;;;;;;;5113930;28;1724;-47
2022/10/17 03:55:04;;;;;;;;;;;;;;;;;;5112663;28;1792;-45
2022/10/17 03:57:33;;;;;;;;;;;;;;;;;;5114187;28;2001;-49
2022/10/17 04:00:00;;;;;;;;;;;;;;;;;;5112114;28;2125;-48
2022/10/17 04:02:28;;;;;;;;;;;;;;;;;;5113728;27;1917;-47
2022/10/17 04:04:56;;;;;;;;;;;;;;;;;;5112492;28;1858;-47
2022/10/17 04:07:23;;;;;;;;;;;;;;;;;;5113395;28;1898;-47
2022/10/17 04:09:56;;;;;;;;;;;;;;;;;;5113541;28;1569;-45
2022/10/17 04:12:24;;;;;;;;;;;;;;;;;;5112424;28;2021;-47
2022/10/17 04:14:51;;;;;;;;;;;;;;;;;;5112160;28;1641;-46
2022/10/17 04:17:19;;;;;;;;;;;;;;;;;;5112460;28;1725;-48
2022/10/17 04:19:48;;;;;;;;;;;;;;;;;;5112343;28;1659;-46
2022/10/17 04:22:16;;;;;;;;;;;;;;;;;;5112097;28;2089;-45
2022/10/17 04:24:44;;;;;;;;;;;;;;;;;;5112003;28;2302;-46
2022/10/17 04:27:30;;;;;;;;;;;;;;;;;;5113210;28;2004;-47
2022/10/17 04:29:57;;;;;;;;;;;;;;;;;;5111893;28;1997;-46
2022/10/17 04:32:24;;;;;;;;;;;;;;;;;;5111552;28;1570;-43
2022/10/17 04:35:18;;;;;;;;;;;;;;;;;;5089715;28;1741;-46
2022/10/17 04:37:50;;;;;;;;;;;;;;;;;;5091555;28;2128;-48
2022/10/17 04:40:18;;;;;;;;;;;;;;;;;;5091586;28;2080;-47
2022/10/17 04:42:46;;;;;;;;;;;;;;;;;;5091144;28;2385;-46
2022/10/17 04:45:17;;;;;;;;;;;;;;;;;;5091587;28;1894;-45
2022/10/17 04:47:45;;;;;;;;;;;;;;;;;;5091326;28;2161;-49
2022/10/17 04:50:15;;;;;;;;;;;;;;;;;;5090916;28;1771;-44
2022/10/17 04:53:00;;;;;;;;;;;;;;;;;;5092255;28;1903;-47
2022/10/17 04:55:27;;;;;;;;;;;;;;;;;;5091212;28;1523;-47
2022/10/17 04:57:54;;;;;;;;;;;;;;;;;;5103167;28;1424;-46
2022/10/17 05:00:21;;;;;;;;;;;;;;;;;;5111574;28;1834;-45
2022/10/17 05:02:58;;;;;;;;;;;;;;;;;;5111212;28;1946;-45
2022/10/17 05:05:26;;;;;;;;;;;;;;;;;;5111073;28;1646;-44
2022/10/17 05:07:54;;;;;;;;;;;;;;;;;;5111324;28;2195;-42
2022/10/17 05:10:24;;;;;;;;;;;;;;;;;;5110749;28;1561;-43
2022/10/17 05:12:53;;;;;;;;;;;;;;;;;;5111226;28;2057;-49
2022/10/17 05:15:22;;;;;;;;;;;;;;;;;;5111374;28;2401;-47
2022/10/17 05:17:55;;;;;;;;;;;;;;;;;;5110901;28;2131;-46
2022/10/17 05:20:24;;;;;;;;;;;;;;;;;;5110868;28;1491;-46
2022/10/17 05:22:52;;;;;;;;;;;;;;;;;;5111218;28;1910;-43
2022/10/17 05:25:19;;;;;;;;;;;;;;;;;;5110890;28;1747;-46
2022/10/17 05:27:46;;;;;;;;;;;;;;;;;;5112091;28;1438;-45
2022/10/17 05:30:14;;;;;;;;;;;;;;;;;;5110785;28;2041;-48
2022/10/17 05:32:41;;;;;;;;;;;;;;;;;;5109013;28;1712;-48
2022/10/17 05:35:09;;;;;;;;;;;;;;;;;;5091786;28;1976;-48
2022/10/17 05:37:37;;;;;;;;;;;;;;;;;;5091616;28;2054;-46
2022/10/17 05:40:05;;;;;;;;;;;;;;;;;;5091707;28;1492;-47
2022/10/17 05:42:33;;;;;;;;;;;;;;;;;;5090234;28;2404;-45
2022/10/17 05:45:01;;;;;;;;;;;;;;;;;;5090374;28;1768;-47
2022/10/17 05:47:29;;;;;;;;;;;;;;;;;;5089769;28;1788;-50
2022/10/17 05:49:56;;;;;;;;;;;;;;;;;;5090577;28;1834;-46
2022/10/17 05:52:33;;;;;;;;;;;;;;;;;;5090148;28;1939;-45
2022/10/17 05:55:10;;;;;;;;;;;;;;;;;;5090200;28;1910;-46
2022/10/17 05:57:38;;;;;;;;;;;;;;;;;;5090127;28;1866;-47
2022/10/17 06:00:10;;;;;;;;;;;;;;;;;;5090060;28;2036;-47
2022/10/17 06:02:40;;;;;;;;;;;;;;;;;;5091232;28;1914;-47
2022/10/17 06:05:10;;;;;;;;;;;;;;;;;;5090019;28;2070;-46
2022/10/17 06:07:37;;;;;;;;;;;;;;;;;;5091436;28;2203;-46
2022/10/17 06:10:07;;;;;;;;;;;;;;;;;;5089980;28;1952;-45
2022/10/17 06:12:34;;;;;;;;;;;;;;;;;;5089809;28;2031;-47
2022/10/17 06:15:01;;;;;;;;;;;;;;;;;;5106052;28;2153;-44
2022/10/17 06:17:29;;;;;;;;;;;;;;;;;;5073200;28;2397;-45
2022/10/17 06:19:57;;;;;;;;;;;;;;;;;;5089829;28;2102;-50
2022/10/17 06:22:24;;;;;;;;;;;;;;;;;;5089962;28;1968;-38
2022/10/17 06:24:52;;;;;;;;;;;;;;;;;;5089595;28;1628;-45
2022/10/17 06:27:20;;;;;;;;;;;;;;;;;;5090998;28;1525;-48
2022/10/17 06:29:47;;;;;;;;;;;;;;;;;;5092110;28;1790;-43
2022/10/17 06:32:15;;;;;;;;;;;;;;;;;;5095121;28;1974;-44
2022/10/17 06:34:45;;;;;;;;;;;;;;;;;;5093531;28;1706;-46
2022/10/17 06:37:13;;;;;;;;;;;;;;;;;;5093715;28;2050;-49
2022/10/17 06:39:40;;;;;;;;;;;;;;;;;;5093649;28;2177;-49
2022/10/17 06:42:18;;;;;;;;;;;;;;;;;;5093393;28;2239;-46
2022/10/17 06:45:04;;;;;;;;;;;;;;;;;;5094935;28;1889;-45
2022/10/17 06:47:39;;;;;;;;;;;;;;;;;;5093419;28;1589;-47
2022/10/17 06:50:38;;;;;;;;;;;;;;;;;;5093378;28;2191;-46
2022/10/17 06:53:12;;;;;;;;;;;;;;;;;;5094861;28;2169;-46
2022/10/17 06:56:07;;;;;;;;;;;;;;;;;;5093140;28;1782;-46
2022/10/17 06:59:00;;;;;;;;;;;;;;;;;;5093618;28;1649;-47
2022/10/17 07:01:30;;;;;;;;;;;;;;;;;;5093310;28;1948;-42
2022/10/17 07:03:58;;;;;;;;;;;;;;;;;;5093460;28;1975;-46
2022/10/17 07:06:27;;;;;;;;;;;;;;;;;;5093305;28;1639;-44
2022/10/17 07:08:58;;;;;;;;;;;;;;;;;;5093451;28;2101;-46
2022/10/17 07:11:25;;;;;;;;;;;;;;;;;;5094411;28;1445;-46
2022/10/17 07:13:52;;;;;;;;;;;;;;;;;;5094213;28;1984;-48
2022/10/17 07:16:20;;;;;;;;;;;;;;;;;;5093113;28;1890;-50
2022/10/17 07:18:54;;;;;;;;;;;;;;;;;;5092451;28;2175;-47
2022/10/17 07:21:21;;;;;;;;;;;;;;;;;;5093084;28;2226;-44
2022/10/17 07:23:49;;;;;;;;;;;;;;;;;;5094043;28;1981;-46
2022/10/17 07:26:18;;;;;;;;;;;;;;;;;;5094305;28;1841;-48
2022/10/17 07:28:50;;;;;;;;;;;;;;;;;;5092789;28;2019;-40
2022/10/17 07:31:36;;;;;;;;;;;;;;;;;;5092319;28;1664;-44
2022/10/17 07:34:03;;;;;;;;;;;;;;;;;;5093777;28;1915;-41
2022/10/17 07:36:30;;;;;;;;;;;;;;;;;;5094370;28;2012;-47
2022/10/17 07:39:00;;;;;;;;;;;;;;;;;;5092818;28;2038;-47
2022/10/17 07:41:29;;;;;;;;;;;;;;;;;;5091701;28;1850;-41
2022/10/17 07:43:57;;;;;;;;;;;;;;;;;;5093618;28;1969;-45
2022/10/17 07:46:32;;;;;;;;;;;;;;;;;;5092404;28;1749;-49
2022/10/17 07:49:00;;;;;;;;;;;;;;;;;;5092503;28;2310;-39
2022/10/17 07:51:27;;;;;;;;;;;;;;;;;;5092236;28;1722;-39
2022/10/17 07:53:54;;;;;;;;;;;;;;;;;;5093434;28;1556;-40
2022/10/17 07:56:23;;;;;;;;;;;;;;;;;;5093564;28;1801;-39
2022/10/17 07:58:51;;;;;;;;;;;;;;;;;;5093682;28;1415;-39
2022/10/17 08:01:18;;;;;;;;;;;;;;;;;;5093320;28;1986;-39
2022/10/17 08:03:47;;;;;;;;;;;;;;;;;;5093568;28;1911;-39
2022/10/17 08:06:14;;;;;;;;;;;;;;;;;;5093261;28;1910;-40
2022/10/17 08:08:41;;;;;;;;;;;;;;;;;;5093378;28;2079;-40
2022/10/17 08:11:09;;;;;;;;;;;;;;;;;;5093309;28;1779;-40
2022/10/17 08:13:37;;;;;;;;;;;;;;;;;;5093407;28;1995;-40
2022/10/17 08:16:06;;;;;;;;;;;;;;;;;;5093646;28;1773;-40
2022/10/17 08:18:34;;;;;;;;;;;;;;;;;;5093546;28;2291;-39
2022/10/17 08:21:05;;;;;;;;;;;;;;;;;;5093577;28;1827;-49
2022/10/17 08:23:35;;;;;;;;;;;;;;;;;;5092989;28;1969;-40
2022/10/17 08:26:03;;;;;;;;;;;;;;;;;;5093538;28;1984;-39
2022/10/17 08:28:33;;;;;;;;;;;;;;;;;;5093122;28;1439;-39
2022/10/17 08:31:08;;;;;;;;;;;;;;;;;;5092812;28;1545;-39
2022/10/17 08:33:35;;;;;;;;;;;;;;;;;;5102292;28;1889;-39
2022/10/17 08:36:03;;;;;;;;;;;;;;;;;;5113363;27;1863;-40
2022/10/17 08:38:31;;;;;;;;;;;;;;;;;;5112980;28;1806;-46
2022/10/17 08:41:03;;;;;;;;;;;;;;;;;;5113228;28;2035;-40
2022/10/17 08:43:36;;;;;;;;;;;;;;;;;;5113116;28;1974;-40
2022/10/17 08:46:05;;;;;;;;;;;;;;;;;;5113003;28;1735;-40
2022/10/17 08:48:35;;;;;;;;;;;;;;;;;;5112956;27;1879;-39
2022/10/17 08:51:05;;;;;;;;;;;;;;;;;;5113377;28;1606;-40
2022/10/17 08:53:38;;;;;;;;;;;;;;;;;;5111673;28;1657;-39
2022/10/17 08:56:17;;;;;;;;;;;;;;;;;;5113231;28;2113;-40
2022/10/17 08:58:45;;;;;;;;;;;;;;;;;;5112840;28;2215;-40
2022/10/17 09:01:25;;;;;;;;;;;;;;;;;;5112499;28;1600;-40
2022/10/17 09:04:10;;;;;;;;;;;;;;;;;;5112600;28;1922;-40
2022/10/17 09:06:58;;;;;;;;;;;;;;;;;;5112767;28;1959;-40
2022/10/17 09:09:48;;;;;;;;;;;;;;;;;;5112547;28;1452;-40
2022/10/17 09:12:21;;;;;;;;;;;;;;;;;;5112913;28;1865;-40
2022/10/17 09:15:04;;;;;;;;;;;;;;;;;;5112428;28;1849;-40
2022/10/17 09:17:52;;;;;;;;;;;;;;;;;;5112512;28;1576;-41
2022/10/17 09:20:24;;;;;;;;;;;;;;;;;;5112610;28;2240;-40
2022/10/17 09:22:57;;;;;;;;;;;;;;;;;;5111790;28;2005;-40
2022/10/17 09:25:25;;;;;;;;;;;;;;;;;;5112498;28;2121;-40
2022/10/17 09:28:01;;;;;;;;;;;;;;;;;;5112432;28;1882;-40
2022/10/17 09:30:47;;;;;;;;;;;;;;;;;;5111984;28;1990;-43
2022/10/17 09:33:15;;;;;;;;;;;;;;;;;;5105635;28;1841;-40
2022/10/17 09:36:01;;;;;;;;;;;;;;;;;;5091934;28;2143;-40
2022/10/17 09:38:40;;;;;;;;;;;;;;;;;;5091535;28;2242;-40
2022/10/17 09:41:18;;;;;;;;;;;;;;;;;;5091785;28;1623;-40
2022/10/17 09:44:14;;;;;;;;;;;;;;;;;;5091473;28;1977;-41
2022/10/17 09:46:42;;;;;;;;;;;;;;;;;;5091740;28;1765;-40
2022/10/17 09:49:13;;;;;;;;;;;;;;;;;;5091789;28;2180;-41
2022/10/17 09:51:42;;;;;;;;;;;;;;;;;;5091484;28;2016;-40
2022/10/17 09:54:32;;;;;;;;;;;;;;;;;;5091743;28;1544;-40
2022/10/17 09:57:03;;;;;;;;;;;;;;;;;;5091533;28;1990;-39
2022/10/17 09:59:36;;;;;;;;;;;;;;;;;;5091244;28;1671;-40
2022/10/17 10:02:07;;;;;;;;;;;;;;;;;;5091165;28;1614;-41
2022/10/17 10:04:34;;;;;;;;;;;;;;;;;;5091127;28;1952;-40
2022/10/17 10:07:22;;;;;;;;;;;;;;;;;;5091317;28;1810;-41
2022/10/17 10:09:55;;;;;;;;;;;;;;;;;;5091236;28;2307;-39
2022/10/17 10:12:25;;;;;;;;;;;;;;;;;;5091168;28;2134;-40
2022/10/17 10:14:53;;;;;;;;;;;;;;;;;;5091208;28;1647;-40
2022/10/17 10:17:37;;;;;;;;;;;;;;;;;;5091121;28;1931;-45
2022/10/17 10:20:25;;;;;;;;;;;;;;;;;;5091128;28;1892;-40
2022/10/17 10:23:04;;;;;;;;;;;;;;;;;;5091187;28;1974;-40
2022/10/17 10:25:31;;;;;;;;;;;;;;;;;;5091127;28;2048;-40
2022/10/17 10:27:58;;;;;;;;;;;;;;;;;;5091081;28;1895;-41
2022/10/17 10:30:29;;;;;;;;;;;;;;;;;;5091182;28;2114;-40
2022/10/17 10:32:59;;;;;;;;;;;;;;;;;;5094897;28;2176;-40
2022/10/17 10:35:29;;;;;;;;;;;;;;;;;;5111415;28;1938;-39
2022/10/17 10:37:57;;;;;;;;;;;;;;;;;;5111286;28;2064;-40
2022/10/17 10:40:36;;;;;;;;;;;;;;;;;;5111960;28;2173;-40
2022/10/17 10:43:04;;;;;;;;;;;;;;;;;;5111084;28;2081;-40
2022/10/17 10:45:36;;;;;;;;;;;;;;;;;;5111422;28;1770;-41
2022/10/17 10:48:20;;;;;;;;;;;;;;;;;;5111437;28;1972;-40
2022/10/17 10:50:47;;;;;;;;;;;;;;;;;;5111418;28;1674;-40
2022/10/17 10:53:34;;;;;;;;;;;;;;;;;;5111520;28;2314;-48
2022/10/17 10:56:04;;;;;;;;;;;;;;;;;;5111277;28;1810;-40
2022/10/17 10:58:36;;;;;;;;;;;;;;;;;;5111155;28;2324;-41
2022/10/17 11:01:15;;;;;;;;;;;;;;;;;;5111183;28;1264;-40
2022/10/17 11:04:06;;;;;;;;;;;;;;;;;;5111187;28;1965;-40
2022/10/17 11:06:35;;;;;;;;;;;;;;;;;;5108245;28;1880;-40
2022/10/17 11:09:05;;;;;;;;;;;;;;;;;;5111302;28;1971;-40
2022/10/17 11:11:41;;;;;;;;;;;;;;;;;;5110968;28;2128;-40
2022/10/17 11:14:20;;;;;;;;;;;;;;;;;;5111277;28;2230;-40
2022/10/17 11:16:47;;;;;;;;;;;;;;;;;;5111762;28;1837;-40
2022/10/17 11:19:17;;;;;;;;;;;;;;;;;;5114981;28;1738;-40
2022/10/17 11:21:52;;;;;;;;;;;;;;;;;;5115035;28;1726;-41
2022/10/17 11:24:26;;;;;;;;;;;;;;;;;;5114647;28;1968;-40
2022/10/17 11:27:01;;;;;;;;;;;;;;;;;;5114351;28;1792;-40
2022/10/17 11:29:31;;;;;;;;;;;;;;;;;;5114590;28;1532;-40
2022/10/17 11:32:02;;;;;;;;;;;;;;;;;;5114395;28;1862;-41
2022/10/17 11:34:31;;;;;;;;;;;;;;;;;;5097733;28;1604;-40
2022/10/17 11:37:02;;;;;;;;;;;;;;;;;;5093992;28;1592;-40
2022/10/17 11:39:48;;;;;;;;;;;;;;;;;;5094389;28;1470;-39
2022/10/17 11:42:21;;;;;;;;;;;;;;;;;;5092838;28;1973;-40
2022/10/17 11:44:51;;;;;;;;;;;;;;;;;;5093798;28;2133;-40
2022/10/17 11:47:21;;;;;;;;;;;;;;;;;;5093861;28;2161;-40
2022/10/17 11:50:12;;;;;;;;;;;;;;;;;;5093902;28;1552;-40
2022/10/17 11:53:19;;;;;;;;;;;;;;;;;;5093700;28;1731;-41
2022/10/17 11:55:46;;;;;;;;;;;;;;;;;;5093902;28;1692;-40
2022/10/17 11:58:29;;;;;;;;;;;;;;;;;;5093648;28;1523;-40
2022/10/17 12:01:22;;;;;;;;;;;;;;;;;;5093577;28;1712;-41
2022/10/17 12:04:08;;;;;;;;;;;;;;;;;;5090530;28;2093;-40
2022/10/17 12:06:53;;;;;;;;;;;;;;;;;;5093270;28;2020;-40
2022/10/17 12:09:39;;;;;;;;;;;;;;;;;;5093477;28;1906;-41
2022/10/17 12:12:07;;;;;;;;;;;;;;;;;;5091945;28;1920;-40
2022/10/17 12:14:38;;;;;;;;;;;;;;;;;;5093376;28;1680;-40
2022/10/17 12:17:21;;;;;;;;;;;;;;;;;;5092989;28;2129;-40
2022/10/17 12:19:50;;;;;;;;;;;;;;;;;;5093591;28;2297;-40
2022/10/17 12:22:20;;;;;;;;;;;;;;;;;;5093398;28;2196;-39
2022/10/17 12:24:58;;;;;;;;;;;;;;;;;;5093214;28;1910;-40
2022/10/17 12:27:37;;;;;;;;;;;;;;;;;;5092790;28;2299;-41
2022/10/17 12:30:16;;;;;;;;;;;;;;;;;;5093132;28;1451;-41
2022/10/17 12:32:54;;;;;;;;;;;;;;;;;;5094889;28;1964;-40
2022/10/17 12:35:32;;;;;;;;;;;;;;;;;;5113280;28;1684;-40
2022/10/17 12:38:14;;;;;;;;;;;;;;;;;;5113171;28;1816;-40
2022/10/17 12:40:41;;;;;;;;;;;;;;;;;;5113323;28;1803;-40
2022/10/17 12:43:13;;;;;;;;;;;;;;;;;;5113612;28;1798;-40
2022/10/17 12:45:56;;;;;;;;;;;;;;;;;;5112986;28;1954;-39
2022/10/17 12:48:32;;;;;;;;;;;;;;;;;;5113083;28;1670;-40
2022/10/17 12:51:10;;;;;;;;;;;;;;;;;;5113074;28;1231;-40
2022/10/17 12:54:14;;;;;;;;;;;;;;;;;;5111602;28;1978;-40
2022/10/17 12:56:43;;;;;;;;;;;;;;;;;;5112987;28;1866;-40
2022/10/17 12:59:19;;;;;;;;;;;;;;;;;;5112775;28;2153;-40
2022/10/17 13:01:48;;;;;;;;;;;;;;;;;;5112477;28;1866;-40
2022/10/17 13:04:16;;;;;;;;;;;;;;;;;;5112823;28;1969;-40
2022/10/17 13:06:48;;;;;;;;;;;;;;;;;;5112612;28;1818;-41
2022/10/17 13:09:24;;;;;;;;;;;;;;;;;;5112670;28;1885;-41
2022/10/17 13:11:52;;;;;;;;;;;;;;;;;;5111638;28;2134;-41
2022/10/17 13:14:23;;;;;;;;;;;;;;;;;;5112804;28;2105;-40
2022/10/17 13:16:55;;;;;;;;;;;;;;;;;;5112743;28;1546;-41
2022/10/17 13:19:23;;;;;;;;;;;;;;;;;;5112396;28;2057;-39
2022/10/17 13:22:01;;;;;;;;;;;;;;;;;;5112642;28;2125;-40
2022/10/17 13:24:34;;;;;;;;;;;;;;;;;;5112170;28;2326;-40
2022/10/17 13:27:01;;;;;;;;;;;;;;;;;;5112479;28;2012;-41
2022/10/17 13:29:30;;;;;;;;;;;;;;;;;;5112074;28;2078;-40
2022/10/17 13:32:00;;;;;;;;;;;;;;;;;;5111858;28;1993;-40
2022/10/17 13:34:27;;;;;;;;;;;;;;;;;;5095799;28;1799;-39
2022/10/17 13:37:01;;;;;;;;;;;;;;;;;;5091744;28;2284;-39
2022/10/17 13:39:29;;;;;;;;;;;;;;;;;;5091279;28;1475;-40
2022/10/17 13:42:30;;;;;;;;;;;;;;;;;;5091769;28;1932;-41
2022/10/17 13:44:58;;;;;;;;;;;;;;;;;;5091528;28;2097;-41
2022/10/17 13:47:31;;;;;;;;;;;;;;;;;;5092044;28;2277;-40
2022/10/17 13:49:59;;;;;;;;;;;;;;;;;;5091623;28;1902;-42
2022/10/17 13:52:28;;;;;;;;;;;;;;;;;;5091427;28;2038;-40
2022/10/17 13:55:06;;;;;;;;;;;;;;;;;;5091447;28;1514;-40
2022/10/17 13:57:33;;;;;;;;;;;;;;;;;;5091628;28;1974;-41
2022/10/17 14:00:05;;;;;;;;;;;;;;;;;;5091794;28;1843;-39
2022/10/17 14:02:39;;;;;;;;;;;;;;;;;;5091132;28;2140;-40
2022/10/17 14:05:07;;;;;;;;;;;;;;;;;;5091745;28;1977;-40
2022/10/17 14:07:50;;;;;;;;;;;;;;;;;;5091173;28;1746;-40
2022/10/17 14:10:38;;;;;;;;;;;;;;;;;;5091338;28;1683;-40
2022/10/17 14:13:07;;;;;;;;;;;;;;;;;;5091327;28;2146;-41
2022/10/17 14:15:35;;;;;;;;;;;;;;;;;;5091229;28;1802;-47
2022/10/17 14:18:04;;;;;;;;;;;;;;;;;;5091134;28;1767;-51
2022/10/17 14:20:33;;;;;;;;;;;;;;;;;;5091400;28;1871;-45
2022/10/17 14:23:41;;;;;;;;;;;;;;;;;;5091302;28;2201;-44
2022/10/17 14:26:21;;;;;;;;;;;;;;;;;;5091151;28;2073;-50
2022/10/17 14:29:01;;;;;;;;;;;;;;;;;;5091114;28;1583;-50
2022/10/17 14:31:30;;;;;;;;;;;;;;;;;;5091211;28;1955;-43
2022/10/17 14:33:57;;;;;;;;;;;;;;;;;;5091182;28;2316;-48
2022/10/17 14:36:32;;;;;;;;;;;;;;;;;;5091076;28;2078;-49
2022/10/17 14:39:00;;;;;;;;;;;;;;;;;;5090956;28;1829;-45
2022/10/17 14:41:30;;;;;;;;;;;;;;;;;;5091191;28;1972;-49
2022/10/17 14:44:29;;;;;;;;;;;;;;;;;;5091085;28;2007;-49
2022/10/17 14:46:58;;;;;;;;;;;;;;;;;;5091027;28;1914;-50
2022/10/17 14:49:36;;;;;;;;;;;;;;;;;;5105922;28;1466;-52
2022/10/17 14:52:12;;;;;;;;;;;;;;;;;;5092178;28;1853;-50
2022/10/17 14:54:45;;;;;;;;;;;;;;;;;;5094578;28;1822;-49
2022/10/17 14:57:27;;;;;;;;;;;;;;;;;;5094782;28;1684;-47
2022/10/17 14:59:55;;;;;;;;;;;;;;;;;;5110427;28;1931;-49
2022/10/17 15:02:27;;;;;;;;;;;;;;;;;;5094683;28;1981;-49
2022/10/17 15:04:54;;;;;;;;;;;;;;;;;;5094658;28;1973;-51
2022/10/17 15:07:22;;;;;;;;;;;;;;;;;;5094470;28;2072;-52
2022/10/17 15:09:50;;;;;;;;;;;;;;;;;;5094438;28;1396;-51
2022/10/17 15:12:20;;;;;;;;;;;;;;;;;;5094465;28;2305;-51
2022/10/17 15:14:47;;;;;;;;;;;;;;;;;;5094428;28;1649;-52
2022/10/17 15:17:17;;;;;;;;;;;;;;;;;;5094389;28;2076;-48
2022/10/17 15:19:45;;;;;;;;;;;;;;;;;;5094460;28;1978;-46
2022/10/17 15:22:12;;;;;;;;;;;;;;;;;;5094472;28;1927;-50
2022/10/17 15:24:39;;;;;;;;;;;;;;;;;;5093966;28;1980;-46
2022/10/17 15:27:12;;;;;;;;;;;;;;;;;;5094325;28;2033;-52
2022/10/17 15:29:40;;;;;;;;;;;;;;;;;;5094174;28;1785;-52
2022/10/17 15:32:08;;;;;;;;;;;;;;;;;;5094619;28;1403;-49
2022/10/17 15:34:36;;;;;;;;;;;;;;;;;;5110251;28;2091;-48
2022/10/17 15:37:04;;;;;;;;;;;;;;;;;;5114378;28;1991;-46
2022/10/17 15:39:32;;;;;;;;;;;;;;;;;;5114725;28;2234;-52
2022/10/17 15:41:59;;;;;;;;;;;;;;;;;;5114629;28;2013;-43
2022/10/17 15:44:26;;;;;;;;;;;;;;;;;;5114303;28;2007;-48
2022/10/17 15:46:54;;;;;;;;;;;;;;;;;;5114328;28;1817;-49
2022/10/17 15:49:21;;;;;;;;;;;;;;;;;;5110943;28;10159;-43
2022/10/17 15:51:48;;;;;;;;;;;;;;;;;;5112091;28;1836;-48
2022/10/17 15:54:20;;;;;;;;;;;;;;;;;;5113798;28;2155;-48
2022/10/17 15:56:52;;;;;;;;;;;;;;;;;;5112717;28;1822;-51
2022/10/17 15:59:21;;;;;;;;;;;;;;;;;;5114252;28;1562;-50
2022/10/17 16:01:48;;;;;;;;;;;;;;;;;;5113921;28;1994;-50
2022/10/17 16:04:17;;;;;;;;;;;;;;;;;;5113471;28;1983;-52
2022/10/17 16:06:45;;;;;;;;;;;;;;;;;;5113860;27;1844;-48
2022/10/17 16:09:12;;;;;;;;;;;;;;;;;;5114089;28;1671;-46
2022/10/17 16:11:41;;;;;;;;;;;;;;;;;;5113800;28;1675;-44
2022/10/17 16:14:12;;;;;;;;;;;;;;;;;;5113685;28;1664;-50
2022/10/17 16:16:40;;;;;;;;;;;;;;;;;;5113246;27;1797;-49
2022/10/17 16:19:07;;;;;;;;;;;;;;;;;;5113210;28;2120;-52
2022/10/17 16:21:36;;;;;;;;;;;;;;;;;;5112664;28;1834;-49
2022/10/17 16:24:03;;;;;;;;;;;;;;;;;;5113759;28;1643;-45
2022/10/17 16:26:30;;;;;;;;;;;;;;;;;;5113313;28;1943;-50
2022/10/17 16:29:01;;;;;;;;;;;;;;;;;;5113094;28;1629;-43
2022/10/17 16:31:35;;;;;;;;;;;;;;;;;;5112103;28;1467;-49
2022/10/17 16:34:03;;;;;;;;;;;;;;;;;;5108665;28;2071;-48
2022/10/17 16:36:30;;;;;;;;;;;;;;;;;;5092850;28;1585;-46
2022/10/17 16:38:57;;;;;;;;;;;;;;;;;;5092883;28;1898;-53
2022/10/17 16:41:25;;;;;;;;;;;;;;;;;;5092925;28;1959;-51
2022/10/17 16:43:58;;;;;;;;;;;;;;;;;;5092727;28;1796;-52
2022/10/17 16:46:26;;;;;;;;;;;;;;;;;;5093051;28;2037;-49
2022/10/17 16:48:53;;;;;;;;;;;;;;;;;;5092607;28;2202;-50
2022/10/17 16:51:21;;;;;;;;;;;;;;;;;;5092680;28;1946;-50
2022/10/17 16:53:49;;;;;;;;;;;;;;;;;;5091019;28;2163;-51
2022/10/17 16:56:18;;;;;;;;;;;;;;;;;;5092468;28;2060;-50
2022/10/17 16:58:48;;;;;;;;;;;;;;;;;;5092636;28;1852;-49
2022/10/17 17:01:17;;;;;;;;;;;;;;;;;;5092184;28;1788;-46
2022/10/17 17:03:46;;;;;;;;;;;;;;;;;;5092615;28;2171;-50
2022/10/17 17:06:15;;;;;;;;;;;;;;;;;;5092376;28;1976;-48
2022/10/17 17:08:42;;;;;;;;;;;;;;;;;;5091894;28;2425;-47
2022/10/17 17:11:10;;;;;;;;;;;;;;;;;;5092382;28;2000;-45
2022/10/17 17:13:37;;;;;;;;;;;;;;;;;;5090865;28;1965;-48
2022/10/17 17:16:06;;;;;;;;;;;;;;;;;;5091895;28;1997;-51
2022/10/17 17:18:34;;;;;;;;;;;;;;;;;;5092325;28;1454;-53
2022/10/17 17:21:02;;;;;;;;;;;;;;;;;;5091881;28;2086;-47
2022/10/17 17:23:31;;;;;;;;;;;;;;;;;;5094419;28;1776;-49
2022/10/17 17:25:59;;;;;;;;;;;;;;;;;;5091580;28;1922;-49
2022/10/17 17:28:28;;;;;;;;;;;;;;;;;;5092056;28;2095;-48
2022/10/17 17:30:59;;;;;;;;;;;;;;;;;;5091935;28;2156;-50
2022/10/17 17:33:29;;;;;;;;;;;;;;;;;;5091779;28;1888;-51
2022/10/17 17:35:57;;;;;;;;;;;;;;;;;;5091846;28;1729;-50